Terminal Aerodrome Forecast
Issued by NWS

Current Version | Previous Version | Graphics & Text | Print | Product List | Glossary On
Versions: 1 2 3 4 5 6 7 8 9 10 11 12 13 14 15 16 17 18 19 20 21
963
FTUS41 KILN 150539
TAFLUK
TAF
KLUK 150539Z 1506/1606 15007KT P6SM -SN SCT035 OVC060
      TEMPO 1508/1511 4SM -SN OVC035
     FM151600 19012G20KT 3SM -SN OVC040
      TEMPO 1518/1521 2SM -SN OVC025
     FM152200 23012KT 3SM -SN BKN015 OVC100
     FM160100 26010KT P6SM -SN OVC015=

USA.gov is the U.S. government's official web portal to all federal, state and local government web resources and services.